CDT,Max TemperatureF,Mean TemperatureF,Min TemperatureF,Max Dew PointF,MeanDew PointF,Min DewpointF,Max Humidity, Mean Humidity, Min Humidity, Max Sea Level PressureIn, Mean Sea Level PressureIn, Min Sea Level PressureIn, Max VisibilityMiles, Mean VisibilityMiles, Min VisibilityMiles, Max Wind SpeedMPH, Mean Wind SpeedMPH, Max Gust SpeedMPH,PrecipitationIn, CloudCover, Events, WindDirDegrees
2013-10-1,83,69,55,53,50,45,86,57,28,29.96,29.88,29.76,10,10,9,16,7,21,0.00,0,,35
2013-10-2,86,70,54,64,57,49,86,64,42,29.97,29.89,29.81,10,10,10,21,9,29,T,3,,172
2013-10-3,82,72,62,66,61,59,93,74,54,29.85,29.78,29.70,10,9,1,23,6,31,1.55,7,Rain-Thunderstorm,351
2013-10-4,82,67,52,69,61,40,93,71,49,29.89,29.75,29.61,10,9,2,28,15,37,0.90,7,Rain-Thunderstorm,119
2013-10-5,55,49,42,37,33,31,70,57,43,29.94,29.89,29.82,10,10,10,25,13,33,T,5,,243
2013-10-6,50,46,42,46,42,37,89,83,76,30.01,29.88,29.78,10,7,2,23,11,30,0.14,7,Rain,302
2013-10-7,75,58,40,45,40,36,100,63,25,30.09,30.04,29.99,10,10,9,15,6,20,0.00,1,,194
2013-10-8,78,64,49,46,43,41,80,55,29,30.01,29.95,29.88,10,10,10,29,16,35,0.00,3,,166
2013-10-9,78,66,53,50,48,46,77,57,37,30.01,29.97,29.92,10,10,9,25,14,30,0.00,2,,157
2013-10-10,80,66,52,53,51,47,83,60,36,30.00,29.91,29.79,10,10,7,28,15,33,0.00,3,,153
2013-10-11,80,66,51,58,49,38,78,51,23,29.89,29.72,29.61,10,10,8,30,18,38,T,4,Rain,183
2013-10-12,68,55,41,42,36,28,83,54,24,30.30,30.11,29.91,10,10,10,17,8,24,0.00,0,,301
2013-10-13,70,52,34,39,35,32,96,61,26,30.44,30.36,30.30,10,10,10,13,6,16,0.00,0,,130
2013-10-14,63,57,50,57,46,32,93,69,45,30.31,29.97,29.76,10,7,2,36,16,44,0.88,7,Rain-Thunderstorm,150
2013-10-15,56,51,45,50,40,36,83,72,61,30.07,29.96,29.81,10,10,8,26,17,36,T,7,Rain,282
2013-10-16,58,51,43,39,36,29,76,55,33,30.09,30.04,29.98,10,10,10,18,8,22,0.00,6,,309
2013-10-17,62,50,37,40,37,34,86,64,42,30.06,29.96,29.90,10,10,10,25,10,30,0.00,6,,281
2013-10-18,52,43,34,37,31,27,85,62,39,30.16,30.08,30.03,10,10,10,14,5,18,0.00,4,,285
2013-10-19,63,48,32,39,33,29,89,60,30,30.01,29.90,29.83,10,10,10,23,7,30,0.00,3,,208
2013-10-20,66,54,41,42,38,35,83,60,36,30.03,29.81,29.72,10,10,10,23,10,30,T,7,,291
2013-10-21,53,43,32,38,32,29,89,70,50,30.13,30.06,29.96,10,10,10,16,4,18,0.00,4,,298
2013-10-22,48,43,37,41,36,32,92,80,67,30.14,30.00,29.88,10,10,9,21,9,26,T,7,Rain,340
2013-10-23,44,39,33,38,35,31,96,86,76,30.22,30.14,30.09,10,10,5,17,5,22,0.04,7,Rain,336
2013-10-24,50,40,30,34,28,24,85,61,36,30.43,30.36,30.21,10,10,10,16,6,25,0.00,2,,318
2013-10-25,59,44,28,31,28,23,85,59,33,30.44,30.29,30.07,10,10,10,21,11,32,0.00,1,,182
2013-10-26,52,43,33,34,31,28,85,63,41,30.24,30.16,30.03,10,10,10,22,7,26,0.00,1,,342
2013-10-27,69,49,29,36,32,26,92,59,26,30.16,29.98,29.83,10,10,10,16,9,22,0.00,0,,160
2013-10-28,56,46,36,39,35,32,89,68,47,30.22,30.14,29.98,10,10,10,25,11,32,0.01,5,Rain,39
2013-10-29,54,49,43,53,45,38,96,84,71,30.20,30.06,29.96,10,5,1,15,6,21,0.10,8,Rain,103
2013-10-30,62,53,43,57,48,40,100,92,84,29.96,29.85,29.78,10,3,0,30,9,40,0.16,8,Fog-Rain-Thunderstorm,330
2013-10-31,57,48,38,43,38,35,92,70,47,29.77,29.65,29.51,10,9,6,17,6,23,0.00,5,,299